Accueil
METAR-TAF:

METAR-TAF

Aéroports :

Base aérienne de Grosseto

Grosseto, Italie

latitude: 42-45N, longitude: 011-04E, altitude: 5 m

Observation

Le bulletin a été fait il y a 1 heure et 9 minutes, à 23:55 UTC
Vent 3 kt de nord
Température 14°C
Humidité 82%
Pression 1023 hPa
Visibilité 10 km ou plus
pas de nuages en-dessous de 1500 mètres et pas de cumulonimbus.

METAR: LIRS 252355Z 36003KT CAVOK 14/11 Q1023 RMK SKC VIS MIN 9999 WIND THR03 03003KT WIND THR21 36003KT BLU

Heure: 03:04 (01:04 UTC)

Prévision

Le bulletin a été fait il y a 2 heures et 4 minutes, à 23:00 UTC
Prévision valable du 26 à 00 UTC au 26 à 09 UTC
Vent 3 kt de direction variable
Visibilité 10 km ou plus
pas de nuages en-dessous de 1500 mètres et pas de cumulonimbus.

TAF: LIRS 252300Z 2600/2609 VRB03KT CAVOK

Observations et prévisions météorologiques de plus de 4000 aéroports (messages METAR et TAF).

Les stations disponibles sont représentées par des disques jaunes et rouges sur la carte.

Passer la souris dessus pour voir le nom de la station.

Cliquer dessus pour voir les observations et prévisions météorologiques.

Pour changer de carte: cliquez sur les boutons verts avec une croix noire pour zoomer, sur le bouton vert avec un tiret pour effectuer un zoom arrière, ou sur les flèches vertes pour les cartes adjacentes.


METAR-TAF: